sensor_id;sensor_type;location;lat;lon;timestamp;pressure;altitude;pressure_sealevel;temperature;humidity
69980;BME280;57318;56.232;43.944;2023-12-22T00:01:54;97352.44;;;0.67;95.43
69980;BME280;57318;56.232;43.944;2023-12-22T00:04:19;97358.47;;;0.67;95.42
69980;BME280;57318;56.232;43.944;2023-12-22T00:06:45;97355.16;;;0.65;95.45
69980;BME280;57318;56.232;43.944;2023-12-22T00:09:13;97358.47;;;0.67;95.29
69980;BME280;57318;56.232;43.944;2023-12-22T00:11:39;97349.94;;;0.65;95.31
69980;BME280;57318;56.232;43.944;2023-12-22T00:14:04;97348.03;;;0.67;95.47
69980;BME280;57318;56.232;43.944;2023-12-22T00:16:30;97350.75;;;0.66;95.55
69980;BME280;57318;56.232;43.944;2023-12-22T00:18:56;97345.41;;;0.67;95.63
69980;BME280;57318;56.232;43.944;2023-12-22T00:21:22;97331.31;;;0.70;95.86
69980;BME280;57318;56.232;43.944;2023-12-22T00:23:48;97325.47;;;0.66;95.72
69980;BME280;57318;56.232;43.944;2023-12-22T00:26:15;97333.91;;;0.70;96.15
69980;BME280;57318;56.232;43.944;2023-12-22T00:28:41;97328.69;;;0.70;95.95
69980;BME280;57318;56.232;43.944;2023-12-22T00:31:07;97326.78;;;0.72;95.91
69980;BME280;57318;56.232;43.944;2023-12-22T00:33:33;97331.06;;;0.73;96.06
69980;BME280;57318;56.232;43.944;2023-12-22T00:35:59;97329.28;;;0.74;96.34
69980;BME280;57318;56.232;43.944;2023-12-22T00:38:25;97328.34;;;0.75;96.32
69980;BME280;57318;56.232;43.944;2023-12-22T00:40:50;97320.38;;;0.76;96.25
69980;BME280;57318;56.232;43.944;2023-12-22T00:43:16;97317.88;;;0.75;96.29
69980;BME280;57318;56.232;43.944;2023-12-22T00:45:42;97320.63;;;0.73;96.44
69980;BME280;57318;56.232;43.944;2023-12-22T00:48:07;97325.97;;;0.71;96.40
69980;BME280;57318;56.232;43.944;2023-12-22T00:50:33;97329.50;;;0.70;96.40
69980;BME280;57318;56.232;43.944;2023-12-22T00:52:59;97321.78;;;0.69;96.41
69980;BME280;57318;56.232;43.944;2023-12-22T00:55:24;97322.63;;;0.69;96.73
69980;BME280;57318;56.232;43.944;2023-12-22T00:57:50;97323.56;;;0.68;96.62
69980;BME280;57318;56.232;43.944;2023-12-22T01:00:16;97314.16;;;0.66;96.90
69980;BME280;57318;56.232;43.944;2023-12-22T01:02:41;97319.16;;;0.69;96.88
69980;BME280;57318;56.232;43.944;2023-12-22T01:05:07;97320.03;;;0.69;96.69
69980;BME280;57318;56.232;43.944;2023-12-22T01:07:33;97321.66;;;0.70;97.04
69980;BME280;57318;56.232;43.944;2023-12-22T01:09:59;97313.72;;;0.72;96.63
69980;BME280;57318;56.232;43.944;2023-12-22T01:12:31;97306.84;;;0.71;96.36
69980;BME280;57318;56.232;43.944;2023-12-22T01:14:57;97316.22;;;0.74;96.50
69980;BME280;57318;56.232;43.944;2023-12-22T01:17:23;97320.72;;;0.71;96.62
69980;BME280;57318;56.232;43.944;2023-12-22T01:19:48;97323.34;;;0.71;96.44
69980;BME280;57318;56.232;43.944;2023-12-22T01:22:14;97326.66;;;0.74;96.39
69980;BME280;57318;56.232;43.944;2023-12-22T01:24:40;97331.91;;;0.74;96.58
69980;BME280;57318;56.232;43.944;2023-12-22T01:27:09;97323.13;;;0.75;96.35
69980;BME280;57318;56.232;43.944;2023-12-22T01:29:35;97318.81;;;0.74;96.54
69980;BME280;57318;56.232;43.944;2023-12-22T01:32:01;97317.28;;;0.71;96.30
69980;BME280;57318;56.232;43.944;2023-12-22T01:34:26;97317.53;;;0.68;96.18
69980;BME280;57318;56.232;43.944;2023-12-22T01:36:52;97306.22;;;0.67;95.94
69980;BME280;57318;56.232;43.944;2023-12-22T01:39:18;97307.88;;;0.68;96.08
69980;BME280;57318;56.232;43.944;2023-12-22T01:41:43;97314.78;;;0.69;95.76
69980;BME280;57318;56.232;43.944;2023-12-22T01:44:09;97316.56;;;0.69;96.14
69980;BME280;57318;56.232;43.944;2023-12-22T01:46:36;97307.88;;;0.68;96.24
69980;BME280;57318;56.232;43.944;2023-12-22T01:49:02;97317.28;;;0.71;96.28
69980;BME280;57318;56.232;43.944;2023-12-22T01:51:29;97314.56;;;0.73;96.01
69980;BME280;57318;56.232;43.944;2023-12-22T01:53:56;97313.72;;;0.72;96.08
69980;BME280;57318;56.232;43.944;2023-12-22T01:56:23;97310.28;;;0.71;96.50
69980;BME280;57318;56.232;43.944;2023-12-22T01:58:50;97320.72;;;0.71;96.36
69980;BME280;57318;56.232;43.944;2023-12-22T02:01:20;97313.72;;;0.72;96.22
69980;BME280;57318;56.232;43.944;2023-12-22T02:03:48;97313.72;;;0.72;96.53
69980;BME280;57318;56.232;43.944;2023-12-22T02:06:15;97319.78;;;0.73;96.37
69980;BME280;57318;56.232;43.944;2023-12-22T02:08:43;97316.44;;;0.70;96.88
69980;BME280;57318;56.232;43.944;2023-12-22T02:11:11;97324.16;;;0.72;96.67
69980;BME280;57318;56.232;43.944;2023-12-22T02:13:37;97321.56;;;0.72;96.54
69980;BME280;57318;56.232;43.944;2023-12-22T02:16:17;97311.09;;;0.72;96.97
69980;BME280;57318;56.232;43.944;2023-12-22T02:18:47;97312.88;;;0.71;96.85
69980;BME280;57318;56.232;43.944;2023-12-22T02:21:13;97314.69;;;0.71;96.75
69980;BME280;57318;56.232;43.944;2023-12-22T02:23:39;97332.13;;;0.70;96.89
69980;BME280;57318;56.232;43.944;2023-12-22T02:26:27;97328.56;;;0.71;97.10
69980;BME280;57318;56.232;43.944;2023-12-22T02:28:57;97318.13;;;0.71;97.01
69980;BME280;57318;56.232;43.944;2023-12-22T02:31:32;97331.31;;;0.70;96.97
69980;BME280;57318;56.232;43.944;2023-12-22T02:34:00;97322.97;;;0.65;97.36
69980;BME280;57318;56.232;43.944;2023-12-22T02:36:27;97325.81;;;0.62;97.63
69980;BME280;57318;56.232;43.944;2023-12-22T02:38:54;97325.06;;;0.60;97.39
69980;BME280;57318;56.232;43.944;2023-12-22T02:41:21;97332.31;;;0.56;97.59
69980;BME280;57318;56.232;43.944;2023-12-22T02:43:48;97329.09;;;0.52;97.99
69980;BME280;57318;56.232;43.944;2023-12-22T02:46:14;97326.81;;;0.48;98.17
69980;BME280;57318;56.232;43.944;2023-12-22T02:48:40;97322.53;;;0.47;98.35
69980;BME280;57318;56.232;43.944;2023-12-22T02:51:06;97327.84;;;0.45;98.55
69980;BME280;57318;56.232;43.944;2023-12-22T02:53:31;97323.72;;;0.43;98.63
69980;BME280;57318;56.232;43.944;2023-12-22T02:55:57;97325.56;;;0.41;98.75
69980;BME280;57318;56.232;43.944;2023-12-22T02:58:23;97329.38;;;0.37;98.76
69980;BME280;57318;56.232;43.944;2023-12-22T03:00:48;97325.19;;;0.34;98.71
69980;BME280;57318;56.232;43.944;2023-12-22T03:03:14;97327.91;;;0.32;98.92
69980;BME280;57318;56.232;43.944;2023-12-22T03:05:40;97328.97;;;0.30;98.81
69980;BME280;57318;56.232;43.944;2023-12-22T03:08:06;97340.50;;;0.27;98.86
69980;BME280;57318;56.232;43.944;2023-12-22T03:10:31;97338.81;;;0.26;99.33
69980;BME280;57318;56.232;43.944;2023-12-22T03:12:57;97325.03;;;0.24;99.06
69980;BME280;57318;56.232;43.944;2023-12-22T03:15:22;97338.44;;;0.20;98.85
69980;BME280;57318;56.232;43.944;2023-12-22T03:17:48;97333.53;;;0.15;98.50
69980;BME280;57318;56.232;43.944;2023-12-22T03:20:14;97334.69;;;0.11;98.57
69980;BME280;57318;56.232;43.944;2023-12-22T03:22:39;97336.56;;;0.09;98.83
69980;BME280;57318;56.232;43.944;2023-12-22T03:25:05;97343.81;;;0.05;98.99
69980;BME280;57318;56.232;43.944;2023-12-22T03:27:32;97361.44;;;0.02;98.88
69980;BME280;57318;56.232;43.944;2023-12-22T03:29:58;97360.72;;;-0.01;99.25
69980;BME280;57318;56.232;43.944;2023-12-22T03:32:23;97360.00;;;-0.03;99.26
69980;BME280;57318;56.232;43.944;2023-12-22T03:34:49;97352.50;;;-0.07;99.25
69980;BME280;57318;56.232;43.944;2023-12-22T03:37:15;97357.81;;;-0.09;99.25
69980;BME280;57318;56.232;43.944;2023-12-22T03:39:40;97350.31;;;-0.13;99.62
69980;BME280;57318;56.232;43.944;2023-12-22T03:42:06;97350.41;;;-0.15;99.82
69980;BME280;57318;56.232;43.944;2023-12-22T03:44:32;97359.19;;;-0.16;99.61
69980;BME280;57318;56.232;43.944;2023-12-22T03:46:58;97358.56;;;-0.20;99.75
69980;BME280;57318;56.232;43.944;2023-12-22T03:49:23;97350.84;;;-0.21;100.00
69980;BME280;57318;56.232;43.944;2023-12-22T03:51:49;97351.06;;;-0.24;100.00
69980;BME280;57318;56.232;43.944;2023-12-22T03:54:15;97357.56;;;-0.30;100.00
69980;BME280;57318;56.232;43.944;2023-12-22T03:56:44;97360.88;;;-0.28;100.00
69980;BME280;57318;56.232;43.944;2023-12-22T03:59:09;97355.78;;;-0.29;100.00
69980;BME280;57318;56.232;43.944;2023-12-22T04:01:35;97344.63;;;-0.31;100.00
69980;BME280;57318;56.232;43.944;2023-12-22T04:04:01;97359.19;;;-0.29;100.00
69980;BME280;57318;56.232;43.944;2023-12-22T04:06:26;97367.88;;;-0.28;100.00
69980;BME280;57318;56.232;43.944;2023-12-22T04:08:52;97346.03;;;-0.27;100.00
69980;BME280;57318;56.232;43.944;2023-12-22T04:11:18;97358.38;;;-0.29;100.00
69980;BME280;57318;56.232;43.944;2023-12-22T04:13:43;97355.97;;;-0.32;100.00
69980;BME280;57318;56.232;43.944;2023-12-22T04:16:09;97362.22;;;-0.35;100.00
69980;BME280;57318;56.232;43.944;2023-12-22T04:18:35;97366.72;;;-0.37;100.00
69980;BME280;57318;56.232;43.944;2023-12-22T04:21:01;97368.53;;;-0.38;100.00
69980;BME280;57318;56.232;43.944;2023-12-22T04:23:27;97368.41;;;-0.36;100.00
69980;BME280;57318;56.232;43.944;2023-12-22T04:25:52;97373.63;;;-0.36;100.00
69980;BME280;57318;56.232;43.944;2023-12-22T04:28:18;97371.03;;;-0.36;100.00
69980;BME280;57318;56.232;43.944;2023-12-22T04:30:44;97378.84;;;-0.36;100.00
69980;BME280;57318;56.232;43.944;2023-12-22T04:33:09;97375.38;;;-0.37;100.00
69980;BME280;57318;56.232;43.944;2023-12-22T04:35:35;97381.34;;;-0.34;100.00
69980;BME280;57318;56.232;43.944;2023-12-22T04:38:01;97382.50;;;-0.39;100.00
69980;BME280;57318;56.232;43.944;2023-12-22T04:40:26;97390.53;;;-0.42;99.98
69980;BME280;57318;56.232;43.944;2023-12-22T04:42:53;97378.00;;;-0.49;99.81
69980;BME280;57318;56.232;43.944;2023-12-22T04:45:19;97388.75;;;-0.54;99.44
69980;BME280;57318;56.232;43.944;2023-12-22T04:47:44;97384.06;;;-0.62;98.91
69980;BME280;57318;56.232;43.944;2023-12-22T04:50:10;97381.75;;;-0.66;99.06
69980;BME280;57318;56.232;43.944;2023-12-22T04:52:36;97386.56;;;-0.73;99.00
69980;BME280;57318;56.232;43.944;2023-12-22T04:55:01;97384.06;;;-0.75;99.09
69980;BME280;57318;56.232;43.944;2023-12-22T04:57:30;97386.75;;;-0.76;99.29
69980;BME280;57318;56.232;43.944;2023-12-22T04:59:55;97387.78;;;-0.79;99.44
69980;BME280;57318;56.232;43.944;2023-12-22T05:02:21;97391.16;;;-0.77;99.57
69980;BME280;57318;56.232;43.944;2023-12-22T05:04:47;97386.13;;;-0.80;99.71
69980;BME280;57318;56.232;43.944;2023-12-22T05:07:12;97394.88;;;-0.81;99.64
69980;BME280;57318;56.232;43.944;2023-12-22T05:09:38;97393.22;;;-0.82;99.25
69980;BME280;57318;56.232;43.944;2023-12-22T05:12:06;97401.25;;;-0.85;99.25
69980;BME280;57318;56.232;43.944;2023-12-22T05:14:32;97406.47;;;-0.85;99.27
69980;BME280;57318;56.232;43.944;2023-12-22T05:16:57;97399.59;;;-0.86;99.35
69980;BME280;57318;56.232;43.944;2023-12-22T05:19:23;97404.91;;;-0.87;98.88
69980;BME280;57318;56.232;43.944;2023-12-22T05:21:49;97406.78;;;-0.89;98.97
69980;BME280;57318;56.232;43.944;2023-12-22T05:24:22;97409.38;;;-0.89;99.02
69980;BME280;57318;56.232;43.944;2023-12-22T05:26:47;97409.50;;;-0.91;99.10
69980;BME280;57318;56.232;43.944;2023-12-22T05:29:13;97406.97;;;-0.93;98.95
69980;BME280;57318;56.232;43.944;2023-12-22T05:31:39;97420.13;;;-0.94;99.03
69980;BME280;57318;56.232;43.944;2023-12-22T05:34:05;97418.25;;;-0.92;98.85
69980;BME280;57318;56.232;43.944;2023-12-22T05:36:31;97413.94;;;-0.93;99.39
69980;BME280;57318;56.232;43.944;2023-12-22T05:38:57;97412.91;;;-0.91;99.23
69980;BME280;57318;56.232;43.944;2023-12-22T05:41:22;97414.41;;;-0.86;99.35
69980;BME280;57318;56.232;43.944;2023-12-22T05:43:48;97411.59;;;-0.83;99.68
69980;BME280;57318;56.232;43.944;2023-12-22T05:46:14;97406.78;;;-0.77;99.80
69980;BME280;57318;56.232;43.944;2023-12-22T05:48:39;97409.72;;;-0.68;99.87
69980;BME280;57318;56.232;43.944;2023-12-22T05:51:05;97420.78;;;-0.65;99.85
69980;BME280;57318;56.232;43.944;2023-12-22T05:53:35;97415.56;;;-0.65;99.74
69980;BME280;57318;56.232;43.944;2023-12-22T05:56:02;97415.16;;;-0.59;99.49
69980;BME280;57318;56.232;43.944;2023-12-22T05:58:28;97422.34;;;-0.62;99.23
69980;BME280;57318;56.232;43.944;2023-12-22T06:00:54;97423.84;;;-0.58;99.10
69980;BME280;57318;56.232;43.944;2023-12-22T06:03:19;97423.72;;;-0.57;98.92
69980;BME280;57318;56.232;43.944;2023-12-22T06:05:45;97415.78;;;-0.55;98.58
69980;BME280;57318;56.232;43.944;2023-12-22T06:08:11;97428.75;;;-0.41;98.15
69980;BME280;57318;56.232;43.944;2023-12-22T06:10:36;97419.63;;;-0.22;98.30
69980;BME280;57318;56.232;43.944;2023-12-22T06:13:02;97431.13;;;-0.12;97.46
69980;BME280;57318;56.232;43.944;2023-12-22T06:15:29;97429.69;;;-0.03;96.49
69980;BME280;57318;56.232;43.944;2023-12-22T06:17:55;97429.34;;;-0.11;95.49
69980;BME280;57318;56.232;43.944;2023-12-22T06:20:21;97423.28;;;0.01;95.59
69980;BME280;57318;56.232;43.944;2023-12-22T06:22:46;97435.53;;;0.50;95.16
69980;BME280;57318;56.232;43.944;2023-12-22T06:25:12;97438.34;;;0.71;94.02
69980;BME280;57318;56.232;43.944;2023-12-22T06:27:38;97436.25;;;1.36;91.90
69980;BME280;57318;56.232;43.944;2023-12-22T06:30:05;97431.34;;;2.01;88.19
69980;BME280;57318;56.232;43.944;2023-12-22T06:32:31;97442.72;;;2.68;84.37
69980;BME280;57318;56.232;43.944;2023-12-22T06:34:58;97442.81;;;3.42;80.45
69980;BME280;57318;56.232;43.944;2023-12-22T06:37:26;97442.47;;;4.30;77.34
69980;BME280;57318;56.232;43.944;2023-12-22T06:39:51;97456.19;;;4.84;73.85
69980;BME280;57318;56.232;43.944;2023-12-22T06:42:17;97449.47;;;5.30;69.87
69980;BME280;57318;56.232;43.944;2023-12-22T06:44:43;97451.19;;;5.98;68.22
69980;BME280;57318;56.232;43.944;2023-12-22T06:47:11;97448.25;;;6.48;65.59
69980;BME280;57318;56.232;43.944;2023-12-22T06:49:37;97464.75;;;6.78;63.16
69980;BME280;57318;56.232;43.944;2023-12-22T06:52:03;97460.44;;;6.77;62.56
69980;BME280;57318;56.232;43.944;2023-12-22T06:54:28;97455.97;;;7.41;62.01
69980;BME280;57318;56.232;43.944;2023-12-22T06:56:54;97455.47;;;7.82;59.62
69980;BME280;57318;56.232;43.944;2023-12-22T06:59:20;97459.75;;;6.47;61.36
69980;BME280;57318;56.232;43.944;2023-12-22T07:01:46;97453.06;;;5.10;64.56
69980;BME280;57318;56.232;43.944;2023-12-22T07:04:11;97450.94;;;4.03;68.15
69980;BME280;57318;56.232;43.944;2023-12-22T07:06:37;97462.03;;;4.87;68.82
69980;BME280;57318;56.232;43.944;2023-12-22T07:11:47;97460.47;;;5.92;64.27
69980;BME280;57318;56.232;43.944;2023-12-22T07:14:13;97470.66;;;5.29;64.68
69980;BME280;57318;56.232;43.944;2023-12-22T07:16:39;97467.56;;;6.39;63.50
69980;BME280;57318;56.232;43.944;2023-12-22T07:19:05;97475.38;;;7.14;61.30
69980;BME280;57318;56.232;43.944;2023-12-22T07:21:31;97471.88;;;6.03;61.68
69980;BME280;57318;56.232;43.944;2023-12-22T07:23:57;97475.75;;;4.91;64.76
69980;BME280;57318;56.232;43.944;2023-12-22T07:26:24;97467.78;;;4.00;68.28
69980;BME280;57318;56.232;43.944;2023-12-22T07:28:53;97475.59;;;3.27;71.04
69980;BME280;57318;56.232;43.944;2023-12-22T07:31:19;97471.78;;;2.76;73.87
69980;BME280;57318;56.232;43.944;2023-12-22T07:33:44;97477.09;;;2.42;76.34
69980;BME280;57318;56.232;43.944;2023-12-22T07:36:10;97472.91;;;2.06;77.79
69980;BME280;57318;56.232;43.944;2023-12-22T07:38:37;97485.75;;;1.75;79.12
69980;BME280;57318;56.232;43.944;2023-12-22T07:41:04;97484.38;;;1.58;80.72
69980;BME280;57318;56.232;43.944;2023-12-22T07:43:30;97488.38;;;1.51;81.85
69980;BME280;57318;56.232;43.944;2023-12-22T07:45:56;97491.78;;;1.40;82.41
69980;BME280;57318;56.232;43.944;2023-12-22T07:48:22;97473.97;;;1.34;83.32
69980;BME280;57318;56.232;43.944;2023-12-22T07:50:49;97474.78;;;1.34;83.92
69980;BME280;57318;56.232;43.944;2023-12-22T07:53:15;97475.00;;;1.31;84.00
69980;BME280;57318;56.232;43.944;2023-12-22T07:55:41;97478.00;;;1.38;84.28
69980;BME280;57318;56.232;43.944;2023-12-22T07:58:06;97473.13;;;1.44;84.52
69980;BME280;57318;56.232;43.944;2023-12-22T08:00:33;97466.16;;;1.45;84.29
69980;BME280;57318;56.232;43.944;2023-12-22T08:02:59;97460.78;;;1.47;84.29
69980;BME280;57318;56.232;43.944;2023-12-22T08:05:26;97465.81;;;1.50;84.78
69980;BME280;57318;56.232;43.944;2023-12-22T08:07:52;97454.66;;;1.59;84.74
69980;BME280;57318;56.232;43.944;2023-12-22T08:10:18;97461.53;;;1.60;84.78
69980;BME280;57318;56.232;43.944;2023-12-22T08:12:44;97463.81;;;1.65;84.82
69980;BME280;57318;56.232;43.944;2023-12-22T08:15:10;97455.13;;;1.64;84.67
69980;BME280;57318;56.232;43.944;2023-12-22T08:17:36;97458.34;;;1.68;84.71
69980;BME280;57318;56.232;43.944;2023-12-22T08:20:06;97453.47;;;1.74;84.93
69980;BME280;57318;56.232;43.944;2023-12-22T08:22:33;97453.97;;;1.79;84.60
69980;BME280;57318;56.232;43.944;2023-12-22T08:24:59;97456.34;;;1.83;84.71
69980;BME280;57318;56.232;43.944;2023-12-22T08:27:25;97452.88;;;1.82;84.64
69980;BME280;57318;56.232;43.944;2023-12-22T08:29:51;97453.34;;;1.76;84.84
69980;BME280;57318;56.232;43.944;2023-12-22T08:32:16;97453.91;;;1.68;85.09
69980;BME280;57318;56.232;43.944;2023-12-22T08:34:42;97444.06;;;1.60;85.86
69980;BME280;57318;56.232;43.944;2023-12-22T08:37:07;97442.00;;;1.53;86.90
69980;BME280;57318;56.232;43.944;2023-12-22T08:39:33;97446.84;;;1.46;87.99
69980;BME280;57318;56.232;43.944;2023-12-22T08:41:59;97437.81;;;1.39;88.45
69980;BME280;57318;56.232;43.944;2023-12-22T08:44:25;97438.03;;;1.36;88.96
69980;BME280;57318;56.232;43.944;2023-12-22T08:46:52;97440.53;;;1.37;89.49
69980;BME280;57318;56.232;43.944;2023-12-22T08:49:18;97446.25;;;1.42;90.13
69980;BME280;57318;56.232;43.944;2023-12-22T08:51:43;97441.00;;;1.31;90.49
69980;BME280;57318;56.232;43.944;2023-12-22T08:54:09;97449.06;;;1.28;91.09
69980;BME280;57318;56.232;43.944;2023-12-22T08:56:35;97442.69;;;1.32;91.11
69980;BME280;57318;56.232;43.944;2023-12-22T08:59:01;97444.78;;;1.27;91.48
69980;BME280;57318;56.232;43.944;2023-12-22T09:01:27;97449.22;;;1.38;91.53
69980;BME280;57318;56.232;43.944;2023-12-22T09:03:52;97450.28;;;1.35;91.87
69980;BME280;57318;56.232;43.944;2023-12-22T09:06:22;97442.22;;;1.38;91.92
69980;BME280;57318;56.232;43.944;2023-12-22T09:08:48;97444.31;;;1.33;92.29
69980;BME280;57318;56.232;43.944;2023-12-22T09:11:20;97438.16;;;1.34;92.03
69980;BME280;57318;56.232;43.944;2023-12-22T09:13:47;97427.91;;;1.31;92.27
69980;BME280;57318;56.232;43.944;2023-12-22T09:16:12;97432.44;;;1.29;92.48
69980;BME280;57318;56.232;43.944;2023-12-22T09:18:41;97425.88;;;1.35;92.37
69980;BME280;57318;56.232;43.944;2023-12-22T09:21:10;97435.31;;;1.37;92.45
69980;BME280;57318;56.232;43.944;2023-12-22T09:23:35;97430.78;;;1.39;92.61
69980;BME280;57318;56.232;43.944;2023-12-22T09:26:01;97436.13;;;1.38;92.40
69980;BME280;57318;56.232;43.944;2023-12-22T09:28:27;97426.38;;;1.40;92.49
69980;BME280;57318;56.232;43.944;2023-12-22T09:30:52;97423.28;;;1.35;92.63
69980;BME280;57318;56.232;43.944;2023-12-22T09:33:18;97424.50;;;1.42;92.24
69980;BME280;57318;56.232;43.944;2023-12-22T09:35:44;97421.88;;;1.42;92.56
69980;BME280;57318;56.232;43.944;2023-12-22T09:38:10;97421.66;;;1.45;92.36
69980;BME280;57318;56.232;43.944;2023-12-22T09:40:38;97417.47;;;1.42;92.33
69980;BME280;57318;56.232;43.944;2023-12-22T09:43:06;97421.75;;;1.43;92.05
69980;BME280;57318;56.232;43.944;2023-12-22T09:45:33;97419.25;;;1.42;91.95
69980;BME280;57318;56.232;43.944;2023-12-22T09:48:00;97414.00;;;1.31;92.06
69980;BME280;57318;56.232;43.944;2023-12-22T09:50:30;97415.09;;;1.39;92.26
69980;BME280;57318;56.232;43.944;2023-12-22T09:52:56;97407.22;;;1.39;92.28
69980;BME280;57318;56.232;43.944;2023-12-22T09:55:22;97409.72;;;1.41;92.15
69980;BME280;57318;56.232;43.944;2023-12-22T09:57:51;97395.47;;;1.45;92.08
69980;BME280;57318;56.232;43.944;2023-12-22T10:00:18;97402.59;;;1.43;91.96
69980;BME280;57318;56.232;43.944;2023-12-22T10:02:45;97396.66;;;1.41;91.85
69980;BME280;57318;56.232;43.944;2023-12-22T10:05:11;97397.47;;;1.41;91.92
69980;BME280;57318;56.232;43.944;2023-12-22T10:07:41;97386.28;;;1.39;91.76
69980;BME280;57318;56.232;43.944;2023-12-22T10:10:10;97380.25;;;1.39;91.94
69980;BME280;57318;56.232;43.944;2023-12-22T10:12:41;97383.19;;;1.34;92.22
69980;BME280;57318;56.232;43.944;2023-12-22T10:15:12;97376.28;;;1.33;92.11
69980;BME280;57318;56.232;43.944;2023-12-22T10:17:39;97383.19;;;1.34;92.38
69980;BME280;57318;56.232;43.944;2023-12-22T10:20:06;97384.88;;;1.35;92.40
69980;BME280;57318;56.232;43.944;2023-12-22T10:22:31;97383.78;;;1.38;92.14
69980;BME280;57318;56.232;43.944;2023-12-22T10:24:57;97381.06;;;1.39;92.13
69980;BME280;57318;56.232;43.944;2023-12-22T10:27:23;97382.16;;;1.37;92.21
69980;BME280;57318;56.232;43.944;2023-12-22T10:29:56;97393.66;;;1.34;92.38
69980;BME280;57318;56.232;43.944;2023-12-22T10:32:22;97386.06;;;1.31;92.38
69980;BME280;57318;56.232;43.944;2023-12-22T10:34:51;97392.22;;;1.30;92.60
69980;BME280;57318;56.232;43.944;2023-12-22T10:37:16;97395.19;;;1.25;92.56
69980;BME280;57318;56.232;43.944;2023-12-22T10:39:42;97385.56;;;1.26;92.75
69980;BME280;57318;56.232;43.944;2023-12-22T10:42:09;97385.56;;;1.26;92.98
69980;BME280;57318;56.232;43.944;2023-12-22T10:44:35;97385.56;;;1.26;92.86
69980;BME280;57318;56.232;43.944;2023-12-22T10:47:01;97386.72;;;1.22;93.08
69980;BME280;57318;56.232;43.944;2023-12-22T10:49:26;97396.72;;;1.17;92.95
69980;BME280;57318;56.232;43.944;2023-12-22T10:51:52;97391.47;;;1.17;93.26
69980;BME280;57318;56.232;43.944;2023-12-22T10:54:19;97391.47;;;1.17;93.50
69980;BME280;57318;56.232;43.944;2023-12-22T10:56:45;97393.25;;;1.16;93.53
69980;BME280;57318;56.232;43.944;2023-12-22T10:59:11;97395.97;;;1.15;93.80
69980;BME280;57318;56.232;43.944;2023-12-22T11:01:37;97385.41;;;1.16;94.11
69980;BME280;57318;56.232;43.944;2023-12-22T11:04:07;97392.75;;;1.11;94.38
69980;BME280;57318;56.232;43.944;2023-12-22T11:06:37;97381.47;;;1.11;94.07
69980;BME280;57318;56.232;43.944;2023-12-22T11:09:07;97377.91;;;1.12;94.46
69980;BME280;57318;56.232;43.944;2023-12-22T11:11:37;97381.47;;;1.11;94.20
69980;BME280;57318;56.232;43.944;2023-12-22T11:14:05;97380.28;;;1.15;94.59
69980;BME280;57318;56.232;43.944;2023-12-22T11:16:33;97375.06;;;1.15;94.34
69980;BME280;57318;56.232;43.944;2023-12-22T11:19:00;97377.66;;;1.15;94.64
69980;BME280;57318;56.232;43.944;2023-12-22T11:21:27;97382.91;;;1.15;94.61
69980;BME280;57318;56.232;43.944;2023-12-22T11:23:54;97384.09;;;1.11;94.74
69980;BME280;57318;56.232;43.944;2023-12-22T11:26:21;97376.84;;;1.14;94.96
69980;BME280;57318;56.232;43.944;2023-12-22T11:28:49;97387.78;;;1.19;94.58
69980;BME280;57318;56.232;43.944;2023-12-22T11:31:17;97379.00;;;1.20;94.60
69980;BME280;57318;56.232;43.944;2023-12-22T11:33:43;97377.94;;;1.23;94.35
69980;BME280;57318;56.232;43.944;2023-12-22T11:36:11;97390.81;;;1.26;94.46
69980;BME280;57318;56.232;43.944;2023-12-22T11:38:37;97388.66;;;1.20;94.55
69980;BME280;57318;56.232;43.944;2023-12-22T11:41:04;97393.34;;;1.15;94.72
69980;BME280;57318;56.232;43.944;2023-12-22T11:43:31;97398.13;;;1.21;94.71
69980;BME280;57318;56.232;43.944;2023-12-22T11:46:01;97386.03;;;1.20;94.43
69980;BME280;57318;56.232;43.944;2023-12-22T11:48:26;97394.81;;;1.19;94.79
69980;BME280;57318;56.232;43.944;2023-12-22T11:50:52;97392.91;;;1.21;94.39
69980;BME280;57318;56.232;43.944;2023-12-22T11:53:21;97395.03;;;1.16;94.92
69980;BME280;57318;56.232;43.944;2023-12-22T11:55:57;97389.59;;;1.19;94.60
69980;BME280;57318;56.232;43.944;2023-12-22T11:58:46;97401.31;;;1.13;94.56
69980;BME280;57318;56.232;43.944;2023-12-22T12:01:25;97397.88;;;1.13;94.80
69980;BME280;57318;56.232;43.944;2023-12-22T12:03:53;97403.81;;;1.15;95.29
69980;BME280;57318;56.232;43.944;2023-12-22T12:08:54;97409.69;;;1.18;94.93
69980;BME280;57318;56.232;43.944;2023-12-22T12:11:20;97395.97;;;1.15;95.00
69980;BME280;57318;56.232;43.944;2023-12-22T12:13:47;97399.56;;;1.14;95.11
69980;BME280;57318;56.232;43.944;2023-12-22T12:16:13;97394.34;;;1.14;95.31
69980;BME280;57318;56.232;43.944;2023-12-22T12:18:39;97395.88;;;1.16;95.10
69980;BME280;57318;56.232;43.944;2023-12-22T12:21:09;97395.38;;;1.11;95.13
69980;BME280;57318;56.232;43.944;2023-12-22T12:23:36;97394.78;;;1.07;95.38
69980;BME280;57318;56.232;43.944;2023-12-22T12:26:02;97394.78;;;1.07;95.46
69980;BME280;57318;56.232;43.944;2023-12-22T12:28:30;97387.97;;;1.05;95.40
69980;BME280;57318;56.232;43.944;2023-12-22T12:31:05;97400.91;;;0.95;96.04
69980;BME280;57318;56.232;43.944;2023-12-22T12:33:31;97399.78;;;0.86;95.96
69980;BME280;57318;56.232;43.944;2023-12-22T12:35:58;97388.19;;;0.90;96.31
69980;BME280;57318;56.232;43.944;2023-12-22T12:41:32;97395.69;;;0.95;96.23
69980;BME280;57318;56.232;43.944;2023-12-22T12:44:03;97398.06;;;0.98;96.09
69980;BME280;57318;56.232;43.944;2023-12-22T12:46:37;97389.28;;;0.99;96.01
69980;BME280;57318;56.232;43.944;2023-12-22T12:49:05;97404.25;;;0.97;95.85
69980;BME280;57318;56.232;43.944;2023-12-22T12:51:36;97411.59;;;0.92;96.12
69980;BME280;57318;56.232;43.944;2023-12-22T12:54:03;97404.69;;;0.91;96.13
69980;BME280;57318;56.232;43.944;2023-12-22T12:56:29;97403.53;;;0.95;96.25
69980;BME280;57318;56.232;43.944;2023-12-22T12:58:54;97411.16;;;0.98;95.83
69980;BME280;57318;56.232;43.944;2023-12-22T13:01:20;97415.44;;;0.99;95.95
69980;BME280;57318;56.232;43.944;2023-12-22T13:03:55;97416.81;;;0.92;96.01